Time;durP1;ratioP1;P1;durP2;ratioP2;P2;SDS_P1;SDS_P2;PMS_P1;PMS_P2;Temp;Humidity;BMP_temperature;BMP_pressure;BME280_temperature;BME280_humidity;BME280_pressure;Samples;Min_cycle;Max_cycle;Signal;HPM_P1;HPM_P2
2022/09/05 00:02:02;;;;;;;3.53;3.23;;;;;;;16.59;100.00;98537.09;5073636;28;20224;-71
2022/09/05 00:04:58;;;;;;;3.77;3.10;;;;;;;16.64;100.00;98537.16;5073692;28;20208;-71
2022/09/05 00:07:34;;;;;;;4.70;3.47;;;;;;;16.65;100.00;98527.25;5072342;28;20639;-71
2022/09/05 00:10:09;;;;;;;4.77;2.90;;;;;;;16.66;100.00;98537.75;5073577;28;20308;-71
2022/09/05 00:12:36;;;;;;;4.63;3.20;;;;;;;16.62;100.00;98531.25;5072483;28;20266;-71
2022/09/05 00:15:19;;;;;;;4.43;2.93;;;;;;;16.58;100.00;98538.16;5072348;28;20208;-71
2022/09/05 00:18:24;;;;;;;4.27;3.03;;;;;;;16.50;100.00;98530.50;5073208;28;20219;-71
2022/09/05 00:21:11;;;;;;;3.23;2.90;;;;;;;16.51;100.00;98526.75;5073356;28;20331;-71
2022/09/05 00:24:32;;;;;;;5.07;3.30;;;;;;;16.36;100.00;98525.69;5073202;28;20188;-71
2022/09/05 00:27:03;;;;;;;3.47;3.17;;;;;;;16.36;100.00;98528.38;5051146;28;20201;-71
2022/09/05 00:29:54;;;;;;;4.10;3.47;;;;;;;16.39;100.00;98525.19;5069668;28;20281;-71
2022/09/05 00:32:30;;;;;;;3.93;2.93;;;;;;;16.39;100.00;98519.84;5071952;28;20185;-71
2022/09/05 00:35:24;;;;;;;3.60;3.00;;;;;;;16.46;100.00;98524.00;5073068;28;20207;-71
2022/09/05 00:37:52;;;;;;;3.23;2.83;;;;;;;16.49;100.00;98536.13;5073078;28;20625;-71
2022/09/05 00:40:33;;;;;;;5.00;3.30;;;;;;;16.47;100.00;98531.00;5071971;28;20239;-71
2022/09/05 00:43:16;;;;;;;4.90;3.10;;;;;;;16.46;100.00;98525.91;5072928;28;20654;-71
2022/09/05 00:45:49;;;;;;;5.90;3.07;;;;;;;16.39;100.00;98514.47;5073188;28;20192;-71
2022/09/05 00:48:28;;;;;;;4.60;3.13;;;;;;;16.42;100.00;98519.38;5072988;28;20193;-71
2022/09/05 00:50:57;;;;;;;3.40;3.10;;;;;;;16.43;100.00;98531.75;5073121;28;20307;-71
2022/09/05 00:53:48;;;;;;;4.60;3.40;;;;;;;16.42;100.00;98530.13;5073188;28;20570;-71
2022/09/05 00:56:52;;;;;;;3.50;3.20;;;;;;;16.38;100.00;98527.06;5072830;28;20640;-71
2022/09/05 00:59:30;;;;;;;6.27;3.07;;;;;;;16.39;100.00;98528.72;5074460;28;20235;-71
2022/09/05 01:02:25;;;;;;;4.13;3.17;;;;;;;16.36;100.00;98526.50;5076496;28;20224;-71
2022/09/05 01:05:36;;;;;;;2.93;2.70;;;;;;;16.27;100.00;98538.69;5076670;28;20722;-71
2022/09/05 01:08:18;;;;;;;3.63;3.03;;;;;;;16.27;100.00;98543.25;5065638;28;20204;-71
2022/09/05 01:10:57;;;;;;;3.50;3.20;;;;;;;16.16;100.00;98536.91;5076462;28;20699;-71
2022/09/05 01:13:59;;;;;;;4.07;3.43;;;;;;;16.08;100.00;98529.25;5077306;28;20192;-71
2022/09/05 01:16:35;;;;;;;4.57;3.07;;;;;;;16.07;100.00;98532.19;5075362;28;20212;-71
2022/09/05 01:19:27;;;;;;;6.50;3.30;;;;;;;15.93;100.00;98536.22;5075431;28;20279;-71
2022/09/05 01:22:25;;;;;;;4.43;3.10;;;;;;;15.99;100.00;98537.94;5076567;28;20208;-71
2022/09/05 01:25:30;;;;;;;7.23;3.43;;;;;;;15.96;100.00;98528.50;5052610;28;20220;-71
2022/09/05 01:28:06;;;;;;;4.37;3.00;;;;;;;15.98;100.00;98523.72;5076569;28;20559;-71
2022/09/05 01:30:58;;;;;;;5.43;3.10;;;;;;;16.03;100.00;98515.75;5075258;28;20224;-71
2022/09/05 01:33:36;;;;;;;4.63;3.20;;;;;;;16.08;100.00;98509.66;5073012;28;20671;-71
2022/09/05 01:36:43;;;;;;;3.70;3.30;;;;;;;16.05;100.00;98516.31;5076432;28;20279;-71
2022/09/05 01:39:16;;;;;;;3.30;3.00;;;;;;;16.02;100.00;98522.16;5072932;28;20614;-71
2022/09/05 01:41:58;;;;;;;9.23;3.33;;;;;;;16.10;100.00;98507.56;5076062;28;20227;-71
2022/09/05 01:44:56;;;;;;;6.07;3.10;;;;;;;16.06;100.00;98504.53;5076246;28;20205;-71
2022/09/05 01:47:40;;;;;;;5.07;2.80;;;;;;;16.08;100.00;98496.25;5076182;28;20181;-72
2022/09/05 01:50:32;;;;;;;5.33;3.13;;;;;;;16.02;100.00;98508.75;5076038;28;20230;-71
2022/09/05 01:53:14;;;;;;;4.50;2.80;;;;;;;16.05;100.00;98513.63;5074894;28;20188;-71
2022/09/05 01:56:14;;;;;;;3.37;2.93;;;;;;;15.99;100.00;98501.22;5075737;28;20185;-71
2022/09/05 01:58:47;;;;;;;3.60;3.20;;;;;;;16.03;100.00;98507.72;5075926;28;20200;-71
2022/09/05 02:01:17;;;;;;;4.50;2.90;;;;;;;16.02;100.00;98503.38;5075843;28;20290;-72
2022/09/05 02:03:56;;;;;;;4.27;2.97;;;;;;;15.97;100.00;98505.97;5075894;28;20295;-71
2022/09/05 02:07:10;;;;;;;6.80;3.17;;;;;;;15.94;100.00;98511.84;5074670;28;20275;-71
2022/09/05 02:10:06;;;;;;;6.87;3.80;;;;;;;15.82;100.00;98511.09;5065678;28;20254;-71
2022/09/05 02:12:48;;;;;;;4.03;3.60;;;;;;;15.88;100.00;98506.63;5075437;28;20189;-71
2022/09/05 02:15:21;;;;;;;4.77;3.17;;;;;;;15.73;100.00;98512.53;5074489;28;20194;-71
2022/09/05 02:18:01;;;;;;;6.00;2.80;;;;;;;15.79;100.00;98502.72;5075556;28;20215;-71
2022/09/05 02:20:53;;;;;;;5.57;3.63;;;;;;;15.82;100.00;98507.59;5074238;28;20231;-71
2022/09/05 02:23:19;;;;;;;3.53;2.80;;;;;;;15.82;100.00;98508.41;5075550;28;20200;-71
2022/09/05 02:25:46;;;;;;;5.13;3.17;;;;;;;15.83;100.00;98506.56;5076207;28;20208;-72
2022/09/05 02:28:30;;;;;;;3.73;2.77;;;;;;;15.82;100.00;98489.63;5076182;28;20204;-71
2022/09/05 02:31:05;;;;;;;8.17;3.17;;;;;;;15.83;100.00;98493.16;5075318;28;20227;-71
2022/09/05 02:33:45;;;;;;;4.10;3.43;;;;;;;15.82;100.00;98508.41;5074992;28;20188;-71
2022/09/05 02:36:32;;;;;;;6.93;3.10;;;;;;;15.76;100.00;98501.34;5075241;28;20188;-71
2022/09/05 02:39:40;;;;;;;4.07;3.17;;;;;;;15.72;100.00;98492.16;5073691;28;20750;-71
2022/09/05 02:42:09;;;;;;;3.70;3.20;;;;;;;15.69;100.00;98492.63;5073559;28;20224;-71
2022/09/05 02:45:10;;;;;;;6.83;3.57;;;;;;;15.65;100.00;98491.47;5075060;28;20200;-71
2022/09/05 02:47:53;;;;;;;5.13;3.50;;;;;;;15.63;100.00;98492.75;5074587;28;20200;-71
2022/09/05 02:50:38;;;;;;;4.90;3.43;;;;;;;15.57;100.00;98493.72;5073412;28;20235;-71
2022/09/05 02:53:07;;;;;;;5.23;3.50;;;;;;;15.55;100.00;98496.66;5074817;28;20291;-71
2022/09/05 02:56:05;;;;;;;5.60;3.50;;;;;;;15.56;100.00;98500.94;5073529;28;20205;-71
2022/09/05 02:58:49;;;;;;;3.43;3.10;;;;;;;15.53;100.00;98493.41;5065123;28;20204;-71
2022/09/05 03:01:34;;;;;;;5.77;4.20;;;;;;;15.54;100.00;98505.75;5073529;28;20295;-71
2022/09/05 03:04:31;;;;;;;6.83;3.43;;;;;;;15.45;100.00;98496.47;5073356;28;20276;-71
2022/09/05 03:07:06;;;;;;;5.33;3.93;;;;;;;15.48;100.00;98490.63;5074410;28;20244;-71
2022/09/05 03:10:03;;;;;;;5.60;3.03;;;;;;;15.46;100.00;98495.41;5074107;28;20709;-72
2022/09/05 03:12:49;;;;;;;6.60;3.60;;;;;;;15.42;100.00;98488.91;5073164;28;20577;-71
2022/09/05 03:15:16;;;;;;;9.10;3.40;;;;;;;15.47;100.00;98499.69;5074313;28;20283;-71
2022/09/05 03:18:10;;;;;;;4.27;3.53;;;;;;;15.48;100.00;98495.16;5073890;28;20303;-71
2022/09/05 03:20:52;;;;;;;6.33;3.43;;;;;;;15.48;100.00;98489.81;5074081;28;20221;-71
2022/09/05 03:23:49;;;;;;;3.67;3.27;;;;;;;15.45;100.00;98490.28;5073244;28;20600;-71
2022/09/05 03:26:46;;;;;;;6.40;3.57;;;;;;;15.40;100.00;98487.50;5073929;28;20553;-71
2022/09/05 03:29:34;;;;;;;3.60;3.30;;;;;;;15.38;100.00;98478.91;5073993;28;20224;-71
2022/09/05 03:32:11;;;;;;;4.03;2.80;;;;;;;15.40;100.00;98488.34;5073766;28;20185;-71
2022/09/05 03:34:38;;;;;;;3.40;3.10;;;;;;;15.34;100.00;98491.94;5073920;28;20192;-71
2022/09/05 03:37:38;;;;;;;3.20;2.97;;;;;;;15.35;100.00;98490.91;5073578;28;20681;-71
2022/09/05 03:40:35;;;;;;;3.33;3.03;;;;;;;15.34;100.00;98486.59;5073812;28;20224;-71
2022/09/05 03:43:16;;;;;;;4.77;3.20;;;;;;;15.32;100.00;98496.72;5073351;28;20662;-71
2022/09/05 03:46:12;;;;;;;3.67;3.00;;;;;;;15.33;100.00;98492.19;5073715;28;20188;-71
2022/09/05 03:48:47;;;;;;;3.83;3.07;;;;;;;15.25;100.00;98493.34;5073446;28;20208;-71
2022/09/05 03:51:47;;;;;;;5.63;3.50;;;;;;;15.26;100.00;98497.66;5073645;28;20312;-71
2022/09/05 03:54:44;;;;;;;3.90;3.23;;;;;;;15.21;100.00;98496.75;5073773;28;20192;-71
2022/09/05 03:57:38;;;;;;;4.27;3.10;;;;;;;15.15;100.00;98495.03;5073278;28;20267;-71
2022/09/05 04:00:08;;;;;;;4.47;3.40;;;;;;;15.12;100.00;98507.03;5072058;28;20228;-71
2022/09/05 04:02:49;;;;;;;5.97;3.43;;;;;;;15.06;100.00;98497.25;5072978;28;20220;-71
2022/09/05 04:05:24;;;;;;;3.77;3.30;;;;;;;15.08;100.00;98494.34;5073338;28;20258;-71
2022/09/05 04:08:13;;;;;;;5.50;3.53;;;;;;;15.06;100.00;98499.91;5073110;28;20192;-72
2022/09/05 04:10:57;;;;;;;6.17;3.53;;;;;;;15.00;100.00;98498.19;5073307;28;20234;-71
2022/09/05 04:13:47;;;;;;;7.33;3.57;;;;;;;15.04;100.00;98494.00;5072962;28;20259;-72
2022/09/05 04:16:20;;;;;;;4.53;3.50;;;;;;;15.08;100.00;98495.16;5072292;28;20223;-71
2022/09/05 04:19:07;;;;;;;4.63;3.50;;;;;;;15.12;100.00;98493.63;5055631;28;20575;-71
2022/09/05 04:21:43;;;;;;;4.00;3.63;;;;;;;15.12;100.00;98500.84;5073395;28;20219;-71
2022/09/05 04:24:16;;;;;;;4.90;3.73;;;;;;;15.08;100.00;98499.69;5071946;28;20199;-71
2022/09/05 04:27:07;;;;;;;3.70;3.40;;;;;;;15.08;100.00;98499.69;5072926;28;20631;-71
2022/09/05 04:29:59;;;;;;;6.07;3.40;;;;;;;15.07;100.00;98504.22;5073150;28;20220;-71
2022/09/05 04:33:12;;;;;;;3.87;3.50;;;;;;;15.09;100.00;98494.09;5072917;28;20280;-71
2022/09/05 04:35:45;;;;;;;5.43;3.80;;;;;;;15.10;100.00;98495.72;5054803;28;20580;-72
2022/09/05 04:38:17;;;;;;;4.17;3.80;;;;;;;15.17;100.00;98501.78;5038271;28;20195;-71
2022/09/05 04:40:46;;;;;;;7.13;3.83;;;;;;;15.20;100.00;98503.16;5066800;28;20231;-72
2022/09/05 04:43:42;;;;;;;4.20;3.50;;;;;;;15.21;100.00;98507.47;5076364;28;20204;-72
2022/09/05 04:46:14;;;;;;;6.90;3.80;;;;;;;15.22;100.00;98512.59;5076751;28;20283;-71
2022/09/05 04:48:50;;;;;;;5.63;3.63;;;;;;;15.23;100.00;98503.50;5076664;28;20201;-71
2022/09/05 04:51:44;;;;;;;4.97;3.50;;;;;;;15.23;100.00;98516.88;5076777;28;20196;-71
2022/09/05 04:54:25;;;;;;;4.27;3.70;;;;;;;15.29;100.00;98512.44;5076819;28;20202;-71
2022/09/05 04:56:58;;;;;;;6.00;3.90;;;;;;;15.24;100.00;98517.72;5076894;28;20279;-71
2022/09/05 04:59:36;;;;;;;4.43;3.50;;;;;;;15.25;100.00;98519.34;5076542;28;20224;-71
2022/09/05 05:02:27;;;;;;;7.07;3.53;;;;;;;15.26;100.00;98529.81;5076999;28;20678;-71
2022/09/05 05:05:02;;;;;;;5.40;3.40;;;;;;;15.27;100.00;98527.94;5075188;28;20273;-71
2022/09/05 05:07:47;;;;;;;4.63;3.90;;;;;;;15.33;100.00;98527.78;5076672;28;20271;-71
2022/09/05 05:10:41;;;;;;;5.40;3.37;;;;;;;15.42;100.00;98522.94;5075179;28;20252;-71
2022/09/05 05:13:22;;;;;;;5.13;3.90;;;;;;;15.46;100.00;98526.72;5076933;28;20200;-72
2022/09/05 05:15:56;;;;;;;4.00;3.70;;;;;;;15.48;100.00;98536.19;5075977;28;20246;-71
2022/09/05 05:18:32;;;;;;;4.33;3.93;;;;;;;15.56;100.00;98533.09;5074905;28;20643;-71
2022/09/05 05:21:17;;;;;;;4.37;3.60;;;;;;;15.58;100.00;98535.56;5076514;28;20224;-72
2022/09/05 05:23:50;;;;;;;4.23;3.70;;;;;;;15.62;100.00;98534.84;5075483;28;20231;-71
2022/09/05 05:26:22;;;;;;;6.77;3.87;;;;;;;15.68;100.00;98543.78;5075881;28;20633;-71
2022/09/05 05:28:59;;;;;;;5.17;3.87;;;;;;;15.63;100.00;98536.47;5075692;28;20204;-71
2022/09/05 05:31:30;;;;;;;8.10;3.53;;;;;;;15.70;100.00;98539.81;5074944;28;20181;-71
2022/09/05 05:34:03;;;;;;;6.43;3.23;;;;;;;15.66;100.00;98541.38;5076313;28;20204;-71
2022/09/05 05:36:37;;;;;;;3.70;3.40;;;;;;;15.62;100.00;98540.22;5073750;28;20203;-71
2022/09/05 05:39:10;;;;;;;4.33;3.47;;;;;;;15.61;100.00;98543.94;5074152;28;20279;-71
2022/09/05 05:41:44;;;;;;;6.93;3.47;;;;;;;15.64;100.00;98548.81;5058128;28;20548;-71
2022/09/05 05:44:32;;;;;;;3.63;3.33;;;;;;;15.63;100.00;98549.88;5075467;28;20640;-71
2022/09/05 05:47:20;;;;;;;6.00;3.60;;;;;;;15.71;100.00;98552.19;5075078;28;20200;-72
2022/09/05 05:50:01;;;;;;;3.60;3.20;;;;;;;15.72;100.00;98556.47;5075371;28;20236;-72
2022/09/05 05:52:36;;;;;;;4.67;3.53;;;;;;;15.69;100.00;98561.53;5075140;28;20192;-71
2022/09/05 05:55:09;;;;;;;3.97;3.60;;;;;;;15.69;100.00;98551.59;5075880;28;20279;-71
2022/09/05 05:57:53;;;;;;;4.10;3.70;;;;;;;15.70;100.00;98555.09;5075456;28;20211;-71
2022/09/05 06:00:38;;;;;;;5.30;3.93;;;;;;;15.64;100.00;98558.72;5075350;28;20224;-72
2022/09/05 06:03:32;;;;;;;5.20;4.00;;;;;;;15.68;100.00;98563.38;5075201;28;20224;-71
2022/09/05 06:06:17;;;;;;;8.97;3.73;;;;;;;15.81;100.00;98560.41;5073964;28;20204;-71
2022/09/05 06:08:50;;;;;;;3.80;3.50;;;;;;;15.90;100.00;98563.50;5073821;28;20200;-71
2022/09/05 06:11:41;;;;;;;5.97;3.87;;;;;;;15.97;100.00;98567.66;5075194;28;20209;-72
2022/09/05 06:14:38;;;;;;;6.27;3.80;;;;;;;16.02;100.00;98569.63;5074952;28;20192;-71
2022/09/05 06:17:36;;;;;;;7.37;3.97;;;;;;;16.11;100.00;98560.94;5075246;28;20214;-71
2022/09/05 06:20:24;;;;;;;6.17;4.13;;;;;;;16.17;100.00;98568.03;5074664;28;20676;-71
2022/09/05 06:23:06;;;;;;;5.83;3.77;;;;;;;16.20;100.00;98572.91;5074603;28;20209;-71
2022/09/05 06:26:00;;;;;;;3.80;3.40;;;;;;;16.27;100.00;98570.06;5074029;28;20196;-71
2022/09/05 06:28:45;;;;;;;5.57;3.90;;;;;;;16.36;100.00;98572.13;5074353;28;20647;-71
2022/09/05 06:31:15;;;;;;;5.30;3.97;;;;;;;16.51;100.00;98563.56;5074348;28;20598;-72
2022/09/05 06:34:09;;;;;;;7.83;4.47;;;;;;;16.61;100.00;98569.88;5074196;28;20291;-71
2022/09/05 06:36:47;;;;;;;5.83;3.90;;;;;;;16.80;100.00;98573.13;5073402;28;20193;-71
2022/09/05 06:39:37;;;;;;;6.37;3.90;;;;;;;16.76;100.00;98570.13;5074491;28;20239;-72
2022/09/05 06:42:26;;;;;;;6.33;3.83;;;;;;;16.92;98.94;98565.78;5074043;28;20575;-71
2022/09/05 06:45:18;;;;;;;5.90;4.30;;;;;;;17.01;99.23;98567.78;5074548;28;20237;-71
2022/09/05 06:47:47;;;;;;;4.30;3.90;;;;;;;17.08;100.00;98568.44;5073097;28;20654;-72
2022/09/05 06:50:21;;;;;;;5.07;4.00;;;;;;;17.19;98.50;98570.19;5073860;28;20753;-71
2022/09/05 06:53:10;;;;;;;5.93;4.10;;;;;;;17.28;97.53;98574.06;5074440;28;20184;-72
2022/09/05 06:56:00;;;;;;;6.20;3.97;;;;;;;17.25;97.14;98574.59;5072736;28;20196;-72
2022/09/05 06:59:05;;;;;;;5.90;4.13;;;;;;;17.34;96.48;98575.78;5073257;28;20284;-71
2022/09/05 07:01:44;;;;;;;4.43;3.80;;;;;;;17.43;96.04;98577.00;5073971;28;20200;-71
2022/09/05 07:04:32;;;;;;;4.40;3.50;;;;;;;17.48;96.24;98573.56;5074251;28;20280;-71
2022/09/05 07:07:05;;;;;;;5.10;3.33;;;;;;;17.51;95.25;98579.22;5074241;28;20208;-72
2022/09/05 07:09:52;;;;;;;4.40;3.90;;;;;;;17.59;95.10;98581.50;5073733;28;20236;-71
2022/09/05 07:12:26;;;;;;;5.40;3.43;;;;;;;17.74;93.06;98578.19;5072992;28;20195;-71
2022/09/05 07:15:08;;;;;;;4.87;3.73;;;;;;;17.79;91.19;98581.75;5072761;28;20279;-72
2022/09/05 07:17:39;;;;;;;4.93;4.10;;;;;;;17.81;92.61;98573.41;5073746;28;20242;-71
2022/09/05 07:20:18;;;;;;;4.07;3.63;;;;;;;17.85;91.03;98569.97;5072663;28;20311;-71
2022/09/05 07:23:07;;;;;;;5.20;3.80;;;;;;;17.98;91.41;98580.34;5073583;28;20243;-71
2022/09/05 07:25:34;;;;;;;7.37;4.30;;;;;;;18.06;90.59;98582.53;5073434;28;20188;-71
2022/09/05 07:28:11;;;;;;;4.17;3.50;;;;;;;18.16;90.53;98579.97;5074109;28;20299;-71
2022/09/05 07:30:46;;;;;;;5.60;3.20;;;;;;;18.39;88.50;98574.31;5073494;28;20235;-71
2022/09/05 07:33:18;;;;;;;5.40;3.80;;;;;;;18.49;87.59;98577.06;5073714;28;20199;-72
2022/09/05 07:35:45;;;;;;;5.87;3.93;;;;;;;18.51;87.91;98571.44;5073481;28;20235;-71
2022/09/05 07:38:17;;;;;;;6.27;3.63;;;;;;;18.54;86.45;98574.41;5074234;28;20291;-71
2022/09/05 07:40:56;;;;;;;5.03;3.70;;;;;;;18.71;86.89;98575.09;5073706;28;20260;-72
2022/09/05 07:43:32;;;;;;;4.80;3.60;;;;;;;18.84;86.69;98571.16;5074294;28;20204;-72
2022/09/05 07:46:13;;;;;;;5.10;3.70;;;;;;;18.94;84.29;98568.50;5073755;28;20195;-72
2022/09/05 07:48:45;;;;;;;8.33;3.67;;;;;;;19.05;84.21;98564.81;5074435;28;20402;-72
2022/09/05 07:51:24;;;;;;;7.80;3.43;;;;;;;19.11;84.12;98569.16;5073545;28;20231;-71
2022/09/05 07:53:53;;;;;;;7.63;3.33;;;;;;;19.18;85.85;98567.84;5073690;28;20524;-71
2022/09/05 07:57:02;;;;;;;4.77;3.37;;;;;;;19.43;82.59;98567.22;5073545;28;20291;-71
2022/09/05 07:59:32;;;;;;;6.57;3.60;;;;;;;19.48;81.90;98573.44;5073240;28;20264;-71
2022/09/05 08:02:01;;;;;;;6.30;3.43;;;;;;;19.74;81.47;98574.34;5073737;28;20571;-72
2022/09/05 08:04:33;;;;;;;6.03;3.30;;;;;;;19.85;79.44;98572.50;5073573;28;20295;-72
2022/09/05 08:07:06;;;;;;;6.43;3.27;;;;;;;19.79;78.92;98577.06;5073211;28;20595;-72
2022/09/05 08:10:07;;;;;;;5.43;3.37;;;;;;;19.77;79.46;98577.31;5072664;28;20382;-71
2022/09/05 08:12:42;;;;;;;8.77;3.27;;;;;;;19.96;79.87;98577.66;5073246;28;20212;-72
2022/09/05 08:15:15;;;;;;;6.20;3.47;;;;;;;20.18;79.37;98586.38;5073783;28;20279;-72
2022/09/05 08:17:56;;;;;;;5.57;3.30;;;;;;;20.29;79.70;98582.59;5073784;28;20243;-72
2022/09/05 08:20:29;;;;;;;3.60;3.07;;;;;;;20.39;78.86;98571.00;5073211;28;20718;-72
2022/09/05 08:23:13;;;;;;;4.80;3.07;;;;;;;20.57;75.89;98573.19;5073113;28;20315;-72
2022/09/05 08:25:51;;;;;;;3.57;3.10;;;;;;;20.48;76.82;98572.09;5071966;28;20295;-72
2022/09/05 08:29:01;;;;;;;6.00;2.70;;;;;;;20.70;76.74;98575.34;5073021;28;20648;-71
2022/09/05 08:31:33;;;;;;;3.53;2.70;;;;;;;20.91;74.49;98568.84;5067412;28;20209;-71
2022/09/05 08:34:02;;;;;;;5.23;3.00;;;;;;;20.79;74.59;98569.09;5072872;28;20650;-71
2022/09/05 08:36:40;;;;;;;4.80;2.60;;;;;;;20.77;73.97;98571.28;5073095;28;20295;-72
2022/09/05 08:39:09;;;;;;;5.30;2.83;;;;;;;21.00;72.92;98564.50;5073014;28;20202;-71
2022/09/05 08:41:58;;;;;;;9.70;3.43;;;;;;;21.18;73.31;98553.13;5073002;28;20274;-71
2022/09/05 08:44:36;;;;;;;2.50;2.30;;;;;;;21.29;73.79;98563.63;5071939;28;20185;-72
2022/09/05 08:47:26;;;;;;;4.53;2.90;;;;;;;21.26;72.38;98563.38;5073164;28;20188;-72
2022/09/05 08:50:15;;;;;;;4.07;2.70;;;;;;;21.50;71.38;98564.38;5073074;28;20231;-71
2022/09/05 08:52:59;;;;;;;3.87;3.00;;;;;;;21.43;72.44;98570.06;5073155;28;20212;-72
2022/09/05 08:55:35;;;;;;;3.80;2.80;;;;;;;21.63;71.12;98569.19;5073103;28;20193;-72
2022/09/05 08:58:22;;;;;;;4.73;3.00;;;;;;;21.62;71.50;98560.25;5073306;28;20202;-71
2022/09/05 09:01:00;;;;;;;5.83;2.83;;;;;;;21.93;69.03;98569.09;5072829;28;20344;-72
2022/09/05 09:03:54;;;;;;;3.23;2.60;;;;;;;22.10;69.13;98564.91;5071414;28;20218;-72
2022/09/05 09:06:39;;;;;;;5.57;2.60;;;;;;;21.99;66.40;98557.94;5072885;28;20200;-72
2022/09/05 09:09:19;;;;;;;5.73;2.43;;;;;;;22.08;68.16;98561.69;5071762;28;20197;-72
2022/09/05 09:11:48;;;;;;;5.83;2.40;;;;;;;22.16;67.13;98560.28;5072502;28;20632;-72
2022/09/05 09:14:36;;;;;;;3.53;2.50;;;;;;;22.43;64.69;98558.72;5072412;28;20667;-72
2022/09/05 09:17:06;;;;;;;3.53;2.20;;;;;;;22.52;66.22;98558.97;5072334;28;20219;-72
2022/09/05 09:19:46;;;;;;;4.03;2.50;;;;;;;22.57;65.86;98564.34;5072635;28;20568;-72
2022/09/05 09:22:39;;;;;;;2.97;2.33;;;;;;;22.73;64.40;98554.97;5076248;28;20297;-72
2022/09/05 09:25:12;;;;;;;4.28;2.50;;;;;;;22.98;63.85;98558.25;5075915;28;20645;-72
2022/09/05 09:27:53;;;;;;;6.05;2.30;;;;;;;23.09;61.81;98553.53;5075767;28;20204;-72
2022/09/05 09:30:20;;;;;;;3.53;2.30;;;;;;;23.00;62.92;98555.25;5075870;28;20640;-72
2022/09/05 09:32:49;;;;;;;4.80;2.25;;;;;;;23.02;63.38;98544.94;5075984;28;20283;-72
2022/09/05 09:35:24;;;;;;;4.25;2.65;;;;;;;23.31;61.68;98545.72;5075848;28;20211;-72
2022/09/05 09:37:56;;;;;;;3.03;2.33;;;;;;;23.28;61.78;98546.28;5076218;28;20199;-72
2022/09/05 09:40:45;;;;;;;6.35;2.45;;;;;;;23.29;61.85;98543.31;5075514;28;20224;-72
2022/09/05 09:43:26;;;;;;;4.88;2.70;;;;;;;23.57;61.60;98547.84;5075856;28;20213;-72
2022/09/05 09:46:15;;;;;;;3.17;2.17;;;;;;;23.71;60.19;98542.53;5074696;28;20197;-71
2022/09/05 09:49:23;;;;;;;5.35;2.33;;;;;;;23.89;60.36;98542.56;5074714;28;20193;-72
2022/09/05 09:52:08;;;;;;;2.88;2.50;;;;;;;23.91;60.78;98539.56;5075506;28;20219;-72
2022/09/05 09:55:21;;;;;;;3.28;2.20;;;;;;;23.89;59.75;98531.69;5075766;28;20185;-72
2022/09/05 09:57:59;;;;;;;3.58;2.17;;;;;;;24.09;59.31;98536.03;5055962;28;20213;-72
2022/09/05 10:00:36;;;;;;;3.47;2.50;;;;;;;24.34;59.23;98530.25;5075514;28;20224;-72
2022/09/05 10:03:36;;;;;;;2.10;1.98;;;;;;;24.30;60.01;98531.94;5074205;28;20299;-72
2022/09/05 10:06:47;;;;;;;5.10;2.50;;;;;;;24.63;58.60;98520.81;5075491;28;20193;-72
2022/09/05 10:09:35;;;;;;;3.35;2.25;;;;;;;24.83;59.25;98533.25;5075402;28;20225;-72
2022/09/05 10:12:20;;;;;;;2.85;2.28;;;;;;;24.84;56.67;98532.13;5073879;28;20550;-72
2022/09/05 10:15:07;;;;;;;3.67;2.53;;;;;;;24.79;57.35;98524.84;5075379;28;20211;-72
2022/09/05 10:17:55;;;;;;;4.40;2.53;;;;;;;24.66;56.62;98530.28;5074984;28;20212;-72
2022/09/05 10:20:26;;;;;;;3.55;2.30;;;;;;;24.13;56.96;98528.91;5074162;28;20232;-72
2022/09/05 10:23:08;;;;;;;4.30;2.40;;;;;;;24.41;57.01;98527.94;5075153;28;20303;-72
2022/09/05 10:25:38;;;;;;;2.80;2.17;;;;;;;24.93;57.02;98522.19;5074969;28;20279;-72
2022/09/05 10:28:29;;;;;;;3.17;2.28;;;;;;;25.31;54.16;98521.75;5074910;28;20300;-72
2022/09/05 10:31:03;;;;;;;3.92;2.38;;;;;;;25.02;54.19;98520.38;5074721;28;20231;-72
2022/09/05 10:33:41;;;;;;;2.97;2.33;;;;;;;25.00;53.73;98519.84;5075029;28;20276;-72
2022/09/05 10:36:32;;;;;;;2.72;2.30;;;;;;;25.07;52.40;98512.94;5075013;28;20193;-71
2022/09/05 10:39:23;;;;;;;2.00;1.90;;;;;;;25.43;49.56;98505.72;5071481;28;20275;-73
2022/09/05 10:42:01;;;;;;;2.90;2.00;;;;;;;25.56;51.85;98495.91;5074920;28;20196;-72
2022/09/05 10:44:39;;;;;;;4.05;2.33;;;;;;;25.35;51.72;98489.25;5075248;28;20215;-72
2022/09/05 10:47:14;;;;;;;2.80;2.60;;;;;;;25.51;52.17;98480.47;5074606;28;20192;-72
2022/09/05 10:49:44;;;;;;;2.83;2.03;;;;;;;25.71;51.20;98481.97;5074353;28;20316;-72
2022/09/05 10:52:39;;;;;;;2.40;2.20;;;;;;;25.84;51.24;98481.13;5074569;28;20294;-72
2022/09/05 10:55:16;;;;;;;2.38;2.17;;;;;;;25.61;53.13;98474.84;5074583;28;20595;-72
2022/09/05 10:58:33;;;;;;;2.58;2.20;;;;;;;25.74;51.75;98475.91;5074680;28;20590;-72
2022/09/05 11:01:26;;;;;;;3.60;2.25;;;;;;;25.81;51.30;98470.81;5074085;28;20308;-72
2022/09/05 11:04:26;;;;;;;3.63;1.92;;;;;;;26.10;49.53;98469.34;5073861;28;20311;-72
2022/09/05 11:06:56;;;;;;;2.15;1.95;;;;;;;26.12;48.88;98469.84;5074268;28;20295;-72
2022/09/05 11:09:41;;;;;;;4.05;2.08;;;;;;;26.23;48.40;98470.44;5073904;28;20311;-72
2022/09/05 11:12:31;;;;;;;3.55;2.22;;;;;;;26.34;47.39;98466.31;5074109;28;20291;-72
2022/09/05 11:15:08;;;;;;;3.88;1.85;;;;;;;26.57;46.91;98470.66;5074152;28;20189;-72
2022/09/05 11:17:50;;;;;;;2.30;1.90;;;;;;;26.55;46.49;98460.03;5074082;28;20208;-72
2022/09/05 11:20:23;;;;;;;3.22;1.83;;;;;;;26.60;45.60;98459.94;5074096;28;20282;-72
2022/09/05 11:22:55;;;;;;;2.47;1.92;;;;;;;26.67;45.53;98456.75;5073966;28;20315;-72
2022/09/05 11:25:26;;;;;;;1.90;1.80;;;;;;;26.79;43.32;98452.34;5074106;28;20200;-72
2022/09/05 11:27:56;;;;;;;2.97;1.90;;;;;;;26.63;44.31;98453.03;5073492;28;20287;-72
2022/09/05 11:30:26;;;;;;;1.92;1.83;;;;;;;26.70;42.95;98454.22;5073436;28;20778;-72
2022/09/05 11:33:17;;;;;;;2.45;1.83;;;;;;;26.73;42.45;98450.06;5073988;28;20250;-72
2022/09/05 11:36:05;;;;;;;2.85;2.10;;;;;;;26.56;43.48;98450.75;5073668;28;20192;-72
2022/09/05 11:39:36;;;;;;;2.30;1.73;;;;;;;26.22;45.09;98452.44;5073733;28;20296;-72
2022/09/05 11:42:35;;;;;;;2.95;1.70;;;;;;;25.94;46.41;98445.50;5048036;28;20771;-72
2022/09/05 11:45:17;;;;;;;4.10;1.88;;;;;;;26.24;45.66;98442.03;5051238;28;20300;-72
2022/09/05 11:48:04;;;;;;;2.72;2.00;;;;;;;26.45;42.92;98445.84;5073176;28;20201;-72
2022/09/05 11:50:55;;;;;;;2.45;1.70;;;;;;;26.36;41.05;98445.00;5073772;28;20315;-72
2022/09/05 11:54:18;;;;;;;1.90;1.80;;;;;;;26.40;40.24;98452.25;5073422;28;20299;-72
2022/09/05 11:57:17;;;;;;;2.25;2.00;;;;;;;26.57;40.60;98441.50;5051388;28;20297;-72
2022/09/05 11:59:43;;;;;;;1.88;1.77;;;;;;;26.52;40.25;98441.59;5060790;28;20714;-72
2022/09/05 12:02:40;;;;;;;1.92;1.83;;;;;;;26.33;40.55;98440.19;5073321;28;20368;-72
2022/09/05 12:05:33;;;;;;;3.35;1.90;;;;;;;26.59;41.34;98443.91;5073503;28;20192;-72
2022/09/05 12:08:19;;;;;;;2.88;2.20;;;;;;;26.49;41.37;98434.03;5072926;28;20280;-72
2022/09/05 12:11:06;;;;;;;2.00;1.80;;;;;;;26.64;41.71;98441.81;5072905;28;20707;-72
2022/09/05 12:13:45;;;;;;;4.05;2.00;;;;;;;26.72;42.31;98432.06;5072827;28;20280;-72
2022/09/05 12:16:21;;;;;;;4.75;1.88;;;;;;;26.97;42.42;98423.19;5073104;28;20330;-72
2022/09/05 12:19:15;;;;;;;2.30;1.92;;;;;;;27.05;41.43;98428.69;5072837;28;20287;-72
2022/09/05 12:22:03;;;;;;;2.63;2.00;;;;;;;27.02;39.83;98420.31;5073330;28;20262;-72
2022/09/05 12:24:40;;;;;;;3.42;1.95;;;;;;;26.96;41.10;98421.59;5073091;28;20218;-72
2022/09/05 12:27:09;;;;;;;1.90;1.80;;;;;;;26.43;40.71;98420.81;5072742;28;20555;-72
2022/09/05 12:29:39;;;;;;;1.83;1.73;;;;;;;25.86;42.69;98427.94;5073488;28;20620;-72
2022/09/05 12:32:16;;;;;;;2.22;1.80;;;;;;;25.73;44.00;98415.16;5072716;28;20223;-72
2022/09/05 12:34:54;;;;;;;3.63;2.38;;;;;;;25.57;44.05;98416.66;5072773;28;20722;-72
2022/09/05 12:37:23;;;;;;;2.30;1.90;;;;;;;25.40;44.06;98415.66;5073671;28;20220;-72
2022/09/05 12:40:16;;;;;;;3.38;2.00;;;;;;;25.42;44.28;98408.00;5072673;28;20770;-72
2022/09/05 12:42:55;;;;;;;2.17;1.98;;;;;;;25.70;41.74;98409.53;5072813;28;20199;-72
2022/09/05 12:45:39;;;;;;;1.98;1.77;;;;;;;25.58;42.76;98412.81;5072352;28;20283;-72